sensor_id;sensor_type;location;lat;lon;timestamp;P1;durP1;ratioP1;P2;durP2;ratioP2
65037;SDS011;51605;47.040;15.294;2023-03-01T00:01:11;5.03;;;3.30;;
65037;SDS011;51605;47.040;15.294;2023-03-01T00:03:38;4.40;;;3.25;;
65037;SDS011;51605;47.040;15.294;2023-03-01T00:06:04;4.15;;;3.10;;
65037;SDS011;51605;47.040;15.294;2023-03-01T00:08:31;4.68;;;3.10;;
65037;SDS011;51605;47.040;15.294;2023-03-01T00:13:31;4.13;;;3.20;;
65037;SDS011;51605;47.040;15.294;2023-03-01T00:15:57;4.10;;;3.13;;
65037;SDS011;51605;47.040;15.294;2023-03-01T00:18:23;4.32;;;3.00;;
65037;SDS011;51605;47.040;15.294;2023-03-01T00:20:49;4.43;;;3.40;;
65037;SDS011;51605;47.040;15.294;2023-03-01T00:23:18;4.22;;;2.97;;
65037;SDS011;51605;47.040;15.294;2023-03-01T00:25:44;3.47;;;2.80;;
65037;SDS011;51605;47.040;15.294;2023-03-01T00:28:10;4.25;;;3.13;;
65037;SDS011;51605;47.040;15.294;2023-03-01T00:30:36;5.32;;;3.40;;
65037;SDS011;51605;47.040;15.294;2023-03-01T00:33:02;4.53;;;3.40;;
65037;SDS011;51605;47.040;15.294;2023-03-01T00:35:27;3.83;;;3.10;;
65037;SDS011;51605;47.040;15.294;2023-03-01T00:37:53;4.10;;;3.00;;
65037;SDS011;51605;47.040;15.294;2023-03-01T00:40:32;3.95;;;3.20;;
65037;SDS011;51605;47.040;15.294;2023-03-01T00:42:59;3.78;;;2.92;;
65037;SDS011;51605;47.040;15.294;2023-03-01T00:45:25;3.72;;;3.05;;
65037;SDS011;51605;47.040;15.294;2023-03-01T00:47:51;4.25;;;3.03;;
65037;SDS011;51605;47.040;15.294;2023-03-01T00:50:17;4.20;;;3.10;;
65037;SDS011;51605;47.040;15.294;2023-03-01T00:52:43;4.35;;;3.30;;
65037;SDS011;51605;47.040;15.294;2023-03-01T00:55:09;4.30;;;3.13;;
65037;SDS011;51605;47.040;15.294;2023-03-01T00:57:36;4.53;;;3.30;;
65037;SDS011;51605;47.040;15.294;2023-03-01T01:00:02;3.90;;;3.17;;
65037;SDS011;51605;47.040;15.294;2023-03-01T01:02:29;3.97;;;3.20;;
65037;SDS011;51605;47.040;15.294;2023-03-01T01:04:56;4.57;;;3.10;;
65037;SDS011;51605;47.040;15.294;2023-03-01T01:07:22;4.20;;;3.25;;
65037;SDS011;51605;47.040;15.294;2023-03-01T01:09:47;4.22;;;3.05;;
65037;SDS011;51605;47.040;15.294;2023-03-01T01:12:13;4.55;;;3.13;;
65037;SDS011;51605;47.040;15.294;2023-03-01T01:14:39;4.13;;;3.20;;
65037;SDS011;51605;47.040;15.294;2023-03-01T01:17:04;4.05;;;3.15;;
65037;SDS011;51605;47.040;15.294;2023-03-01T01:19:30;4.32;;;2.92;;
65037;SDS011;51605;47.040;15.294;2023-03-01T01:21:56;5.38;;;2.97;;
65037;SDS011;51605;47.040;15.294;2023-03-01T01:24:21;4.50;;;3.05;;
65037;SDS011;51605;47.040;15.294;2023-03-01T01:26:47;4.20;;;2.97;;
65037;SDS011;51605;47.040;15.294;2023-03-01T01:29:13;4.00;;;2.90;;
65037;SDS011;51605;47.040;15.294;2023-03-01T01:31:39;3.78;;;3.13;;
65037;SDS011;51605;47.040;15.294;2023-03-01T01:34:06;4.03;;;3.05;;
65037;SDS011;51605;47.040;15.294;2023-03-01T01:36:33;3.78;;;2.95;;
65037;SDS011;51605;47.040;15.294;2023-03-01T01:38:59;3.90;;;2.95;;
65037;SDS011;51605;47.040;15.294;2023-03-01T01:41:27;4.50;;;2.90;;
65037;SDS011;51605;47.040;15.294;2023-03-01T01:44:14;4.15;;;2.97;;
65037;SDS011;51605;47.040;15.294;2023-03-01T01:52:22;4.00;;;2.90;;
65037;SDS011;51605;47.040;15.294;2023-03-01T01:55:01;4.72;;;2.97;;
65037;SDS011;51605;47.040;15.294;2023-03-01T01:57:34;3.63;;;2.88;;
65037;SDS011;51605;47.040;15.294;2023-03-01T02:00:08;4.40;;;2.80;;
65037;SDS011;51605;47.040;15.294;2023-03-01T02:02:38;4.05;;;2.97;;
65037;SDS011;51605;47.040;15.294;2023-03-01T02:07:36;3.28;;;2.50;;
65037;SDS011;51605;47.040;15.294;2023-03-01T02:10:04;3.97;;;3.05;;
65037;SDS011;51605;47.040;15.294;2023-03-01T02:12:30;4.23;;;3.20;;
65037;SDS011;51605;47.040;15.294;2023-03-01T02:14:56;3.85;;;3.03;;
65037;SDS011;51605;47.040;15.294;2023-03-01T02:17:22;3.90;;;2.85;;
65037;SDS011;51605;47.040;15.294;2023-03-01T02:22:38;4.32;;;3.13;;
65037;SDS011;51605;47.040;15.294;2023-03-01T02:27:36;3.47;;;2.58;;
65037;SDS011;51605;47.040;15.294;2023-03-01T02:30:08;4.15;;;2.92;;
65037;SDS011;51605;47.040;15.294;2023-03-01T02:32:37;4.03;;;3.00;;
65037;SDS011;51605;47.040;15.294;2023-03-01T02:35:06;3.45;;;2.75;;
65037;SDS011;51605;47.040;15.294;2023-03-01T02:37:35;4.57;;;3.00;;
65037;SDS011;51605;47.040;15.294;2023-03-01T02:40:02;4.03;;;2.95;;
65037;SDS011;51605;47.040;15.294;2023-03-01T02:42:36;3.40;;;2.72;;
65037;SDS011;51605;47.040;15.294;2023-03-01T02:45:09;4.45;;;3.17;;
65037;SDS011;51605;47.040;15.294;2023-03-01T02:47:35;3.72;;;2.92;;
65037;SDS011;51605;47.040;15.294;2023-03-01T02:50:01;3.47;;;2.83;;
65037;SDS011;51605;47.040;15.294;2023-03-01T02:52:28;3.80;;;2.67;;
65037;SDS011;51605;47.040;15.294;2023-03-01T02:55:04;3.50;;;2.85;;
65037;SDS011;51605;47.040;15.294;2023-03-01T02:57:34;3.55;;;2.72;;
65037;SDS011;51605;47.040;15.294;2023-03-01T03:00:04;3.30;;;2.80;;
65037;SDS011;51605;47.040;15.294;2023-03-01T03:02:47;3.60;;;2.72;;
65037;SDS011;51605;47.040;15.294;2023-03-01T03:05:18;3.40;;;2.80;;
65037;SDS011;51605;47.040;15.294;2023-03-01T03:07:54;4.47;;;2.92;;
65037;SDS011;51605;47.040;15.294;2023-03-01T03:10:25;4.22;;;2.50;;
65037;SDS011;51605;47.040;15.294;2023-03-01T03:12:56;3.75;;;2.90;;
65037;SDS011;51605;47.040;15.294;2023-03-01T03:15:23;3.78;;;2.80;;
65037;SDS011;51605;47.040;15.294;2023-03-01T03:17:50;3.42;;;2.63;;
65037;SDS011;51605;47.040;15.294;2023-03-01T03:20:18;4.53;;;3.03;;
65037;SDS011;51605;47.040;15.294;2023-03-01T03:22:49;3.28;;;2.58;;
65037;SDS011;51605;47.040;15.294;2023-03-01T03:25:17;3.63;;;2.83;;
65037;SDS011;51605;47.040;15.294;2023-03-01T03:27:44;3.33;;;2.58;;
65037;SDS011;51605;47.040;15.294;2023-03-01T03:30:14;3.95;;;2.80;;
65037;SDS011;51605;47.040;15.294;2023-03-01T03:32:45;3.85;;;2.70;;
65037;SDS011;51605;47.040;15.294;2023-03-01T03:35:17;3.78;;;2.80;;
65037;SDS011;51605;47.040;15.294;2023-03-01T03:37:44;3.58;;;2.63;;
65037;SDS011;51605;47.040;15.294;2023-03-01T03:40:38;3.58;;;2.50;;
65037;SDS011;51605;47.040;15.294;2023-03-01T03:43:09;3.35;;;2.67;;
65037;SDS011;51605;47.040;15.294;2023-03-01T03:45:37;3.70;;;2.60;;
65037;SDS011;51605;47.040;15.294;2023-03-01T03:48:03;4.60;;;2.60;;
65037;SDS011;51605;47.040;15.294;2023-03-01T03:50:31;4.28;;;3.00;;
65037;SDS011;51605;47.040;15.294;2023-03-01T03:52:56;3.50;;;2.90;;
65037;SDS011;51605;47.040;15.294;2023-03-01T03:55:22;3.25;;;2.72;;
65037;SDS011;51605;47.040;15.294;2023-03-01T03:57:52;3.22;;;2.60;;
65037;SDS011;51605;47.040;15.294;2023-03-01T04:00:19;3.90;;;2.92;;
65037;SDS011;51605;47.040;15.294;2023-03-01T04:02:47;3.55;;;2.60;;
65037;SDS011;51605;47.040;15.294;2023-03-01T04:05:13;3.40;;;2.70;;
65037;SDS011;51605;47.040;15.294;2023-03-01T04:07:41;3.30;;;2.58;;
65037;SDS011;51605;47.040;15.294;2023-03-01T04:10:11;2.97;;;2.38;;
65037;SDS011;51605;47.040;15.294;2023-03-01T04:12:40;3.00;;;2.38;;
65037;SDS011;51605;47.040;15.294;2023-03-01T04:15:08;3.17;;;2.58;;
65037;SDS011;51605;47.040;15.294;2023-03-01T04:17:45;3.58;;;2.85;;
65037;SDS011;51605;47.040;15.294;2023-03-01T04:20:15;3.95;;;2.92;;
65037;SDS011;51605;47.040;15.294;2023-03-01T04:22:50;4.25;;;2.90;;
65037;SDS011;51605;47.040;15.294;2023-03-01T04:25:24;3.30;;;2.67;;
65037;SDS011;51605;47.040;15.294;2023-03-01T04:27:50;3.73;;;2.47;;
65037;SDS011;51605;47.040;15.294;2023-03-01T04:30:16;3.35;;;2.55;;
65037;SDS011;51605;47.040;15.294;2023-03-01T04:32:41;3.38;;;2.30;;
65037;SDS011;51605;47.040;15.294;2023-03-01T04:35:07;3.42;;;2.50;;
65037;SDS011;51605;47.040;15.294;2023-03-01T04:37:33;3.63;;;2.42;;
65037;SDS011;51605;47.040;15.294;2023-03-01T04:40:00;3.05;;;2.50;;
65037;SDS011;51605;47.040;15.294;2023-03-01T04:42:26;3.90;;;2.55;;
65037;SDS011;51605;47.040;15.294;2023-03-01T04:44:52;2.85;;;2.50;;
65037;SDS011;51605;47.040;15.294;2023-03-01T04:47:17;3.70;;;2.65;;
65037;SDS011;51605;47.040;15.294;2023-03-01T04:49:43;3.30;;;2.33;;
65037;SDS011;51605;47.040;15.294;2023-03-01T04:52:09;3.40;;;2.60;;
65037;SDS011;51605;47.040;15.294;2023-03-01T04:54:35;3.55;;;2.40;;
65037;SDS011;51605;47.040;15.294;2023-03-01T04:57:01;3.55;;;2.40;;
65037;SDS011;51605;47.040;15.294;2023-03-01T04:59:28;3.50;;;2.50;;
65037;SDS011;51605;47.040;15.294;2023-03-01T05:01:54;3.30;;;2.60;;
65037;SDS011;51605;47.040;15.294;2023-03-01T05:09:15;3.85;;;2.38;;
65037;SDS011;51605;47.040;15.294;2023-03-01T05:11:41;2.83;;;2.22;;
65037;SDS011;51605;47.040;15.294;2023-03-01T05:14:07;4.93;;;2.40;;
65037;SDS011;51605;47.040;15.294;2023-03-01T05:16:34;2.95;;;2.35;;
65037;SDS011;51605;47.040;15.294;2023-03-01T05:19:01;3.47;;;2.60;;
65037;SDS011;51605;47.040;15.294;2023-03-01T05:21:36;3.05;;;2.30;;
65037;SDS011;51605;47.040;15.294;2023-03-01T05:24:22;3.35;;;2.50;;
65037;SDS011;51605;47.040;15.294;2023-03-01T05:26:49;3.30;;;2.60;;
65037;SDS011;51605;47.040;15.294;2023-03-01T05:29:16;2.92;;;2.40;;
65037;SDS011;51605;47.040;15.294;2023-03-01T05:31:43;3.33;;;2.58;;
65037;SDS011;51605;47.040;15.294;2023-03-01T05:34:08;2.95;;;2.40;;
65037;SDS011;51605;47.040;15.294;2023-03-01T05:36:36;2.78;;;2.13;;
65037;SDS011;51605;47.040;15.294;2023-03-01T05:39:03;3.75;;;2.40;;
65037;SDS011;51605;47.040;15.294;2023-03-01T05:41:28;3.05;;;2.20;;
65037;SDS011;51605;47.040;15.294;2023-03-01T05:43:54;3.15;;;2.33;;
65037;SDS011;51605;47.040;15.294;2023-03-01T05:46:20;3.80;;;2.53;;
65037;SDS011;51605;47.040;15.294;2023-03-01T05:48:45;3.55;;;2.50;;
65037;SDS011;51605;47.040;15.294;2023-03-01T05:51:13;3.67;;;2.60;;
65037;SDS011;51605;47.040;15.294;2023-03-01T05:53:38;3.45;;;2.30;;
65037;SDS011;51605;47.040;15.294;2023-03-01T05:56:04;3.10;;;2.33;;
65037;SDS011;51605;47.040;15.294;2023-03-01T05:58:31;2.63;;;2.20;;
65037;SDS011;51605;47.040;15.294;2023-03-01T06:00:56;2.90;;;2.30;;
65037;SDS011;51605;47.040;15.294;2023-03-01T06:03:22;2.92;;;2.22;;
65037;SDS011;51605;47.040;15.294;2023-03-01T06:05:48;2.83;;;2.28;;
65037;SDS011;51605;47.040;15.294;2023-03-01T06:08:14;2.85;;;2.45;;
65037;SDS011;51605;47.040;15.294;2023-03-01T06:10:39;3.05;;;2.38;;
65037;SDS011;51605;47.040;15.294;2023-03-01T06:13:05;3.28;;;2.58;;
65037;SDS011;51605;47.040;15.294;2023-03-01T06:15:31;3.22;;;2.40;;
65037;SDS011;51605;47.040;15.294;2023-03-01T06:17:57;3.10;;;2.30;;
65037;SDS011;51605;47.040;15.294;2023-03-01T06:20:23;3.42;;;2.40;;
65037;SDS011;51605;47.040;15.294;2023-03-01T06:22:51;3.30;;;2.65;;
65037;SDS011;51605;47.040;15.294;2023-03-01T06:25:18;3.15;;;2.35;;
65037;SDS011;51605;47.040;15.294;2023-03-01T06:27:46;3.33;;;2.50;;
65037;SDS011;51605;47.040;15.294;2023-03-01T06:30:14;2.95;;;2.38;;
65037;SDS011;51605;47.040;15.294;2023-03-01T06:32:41;3.85;;;2.42;;
65037;SDS011;51605;47.040;15.294;2023-03-01T06:35:09;3.38;;;2.47;;
65037;SDS011;51605;47.040;15.294;2023-03-01T06:37:36;3.35;;;2.33;;
65037;SDS011;51605;47.040;15.294;2023-03-01T06:40:03;3.25;;;2.17;;
65037;SDS011;51605;47.040;15.294;2023-03-01T06:42:33;5.30;;;2.40;;
65037;SDS011;51605;47.040;15.294;2023-03-01T06:45:00;3.50;;;2.25;;
65037;SDS011;51605;47.040;15.294;2023-03-01T06:47:25;2.80;;;2.13;;
65037;SDS011;51605;47.040;15.294;2023-03-01T06:49:51;3.30;;;2.22;;
65037;SDS011;51605;47.040;15.294;2023-03-01T06:52:17;2.63;;;2.13;;
65037;SDS011;51605;47.040;15.294;2023-03-01T06:54:42;4.60;;;2.20;;
65037;SDS011;51605;47.040;15.294;2023-03-01T06:57:08;3.22;;;2.30;;
65037;SDS011;51605;47.040;15.294;2023-03-01T06:59:33;2.97;;;2.22;;
65037;SDS011;51605;47.040;15.294;2023-03-01T07:01:59;3.00;;;2.22;;
65037;SDS011;51605;47.040;15.294;2023-03-01T07:04:25;3.38;;;2.50;;
65037;SDS011;51605;47.040;15.294;2023-03-01T07:06:53;3.67;;;2.40;;
65037;SDS011;51605;47.040;15.294;2023-03-01T07:09:20;3.22;;;2.40;;
65037;SDS011;51605;47.040;15.294;2023-03-01T07:14:12;2.67;;;2.03;;
65037;SDS011;51605;47.040;15.294;2023-03-01T07:16:38;2.90;;;2.38;;
65037;SDS011;51605;47.040;15.294;2023-03-01T07:19:04;3.10;;;2.42;;
65037;SDS011;51605;47.040;15.294;2023-03-01T07:21:30;3.28;;;2.33;;
65037;SDS011;51605;47.040;15.294;2023-03-01T07:23:55;3.60;;;2.40;;
65037;SDS011;51605;47.040;15.294;2023-03-01T07:26:21;3.13;;;2.50;;
65037;SDS011;51605;47.040;15.294;2023-03-01T07:28:47;3.95;;;2.40;;
65037;SDS011;51605;47.040;15.294;2023-03-01T07:31:14;3.40;;;2.50;;
65037;SDS011;51605;47.040;15.294;2023-03-01T07:33:40;4.30;;;2.72;;
65037;SDS011;51605;47.040;15.294;2023-03-01T07:36:06;3.78;;;2.53;;
65037;SDS011;51605;47.040;15.294;2023-03-01T07:38:32;3.90;;;2.58;;
65037;SDS011;51605;47.040;15.294;2023-03-01T07:41:01;4.03;;;2.55;;
65037;SDS011;51605;47.040;15.294;2023-03-01T07:43:28;3.72;;;2.60;;
65037;SDS011;51605;47.040;15.294;2023-03-01T07:45:54;3.60;;;2.35;;
65037;SDS011;51605;47.040;15.294;2023-03-01T07:48:22;3.25;;;2.45;;
65037;SDS011;51605;47.040;15.294;2023-03-01T07:50:48;3.33;;;2.42;;
65037;SDS011;51605;47.040;15.294;2023-03-01T07:53:14;3.22;;;2.50;;
65037;SDS011;51605;47.040;15.294;2023-03-01T07:55:39;3.10;;;2.40;;
65037;SDS011;51605;47.040;15.294;2023-03-01T07:58:05;3.42;;;2.50;;
65037;SDS011;51605;47.040;15.294;2023-03-01T08:00:30;3.80;;;2.40;;
65037;SDS011;51605;47.040;15.294;2023-03-01T08:02:58;3.88;;;2.72;;
65037;SDS011;51605;47.040;15.294;2023-03-01T08:05:25;3.40;;;2.47;;
65037;SDS011;51605;47.040;15.294;2023-03-01T08:07:51;3.15;;;2.35;;
65037;SDS011;51605;47.040;15.294;2023-03-01T08:10:16;4.45;;;2.40;;
65037;SDS011;51605;47.040;15.294;2023-03-01T08:12:42;3.22;;;2.10;;
65037;SDS011;51605;47.040;15.294;2023-03-01T08:15:08;3.58;;;2.42;;
65037;SDS011;51605;47.040;15.294;2023-03-01T08:17:34;3.70;;;2.70;;
65037;SDS011;51605;47.040;15.294;2023-03-01T08:20:00;3.25;;;2.38;;
65037;SDS011;51605;47.040;15.294;2023-03-01T08:22:25;3.35;;;2.50;;
65037;SDS011;51605;47.040;15.294;2023-03-01T08:24:51;3.38;;;2.20;;
65037;SDS011;51605;47.040;15.294;2023-03-01T08:27:17;2.92;;;2.15;;
65037;SDS011;51605;47.040;15.294;2023-03-01T08:29:42;3.47;;;2.53;;
65037;SDS011;51605;47.040;15.294;2023-03-01T08:32:08;3.13;;;2.25;;
65037;SDS011;51605;47.040;15.294;2023-03-01T08:34:34;3.55;;;2.53;;
65037;SDS011;51605;47.040;15.294;2023-03-01T08:37:00;4.57;;;2.40;;
65037;SDS011;51605;47.040;15.294;2023-03-01T08:39:26;3.27;;;2.40;;
65037;SDS011;51605;47.040;15.294;2023-03-01T08:41:52;3.65;;;2.55;;
65037;SDS011;51605;47.040;15.294;2023-03-01T08:44:18;3.85;;;2.38;;
65037;SDS011;51605;47.040;15.294;2023-03-01T08:46:45;4.10;;;2.30;;
65037;SDS011;51605;47.040;15.294;2023-03-01T08:49:15;3.20;;;2.38;;
65037;SDS011;51605;47.040;15.294;2023-03-01T08:51:42;4.65;;;2.67;;
65037;SDS011;51605;47.040;15.294;2023-03-01T08:56:36;2.97;;;2.10;;
65037;SDS011;51605;47.040;15.294;2023-03-01T08:59:03;3.75;;;2.45;;
65037;SDS011;51605;47.040;15.294;2023-03-01T09:01:29;3.38;;;2.30;;
65037;SDS011;51605;47.040;15.294;2023-03-01T09:03:55;3.50;;;2.30;;
65037;SDS011;51605;47.040;15.294;2023-03-01T09:06:21;3.22;;;2.20;;
65037;SDS011;51605;47.040;15.294;2023-03-01T09:08:47;3.08;;;2.40;;
65037;SDS011;51605;47.040;15.294;2023-03-01T09:13:41;3.23;;;2.40;;
65037;SDS011;51605;47.040;15.294;2023-03-01T09:16:08;3.72;;;2.47;;
65037;SDS011;51605;47.040;15.294;2023-03-01T09:21:04;4.00;;;2.58;;
65037;SDS011;51605;47.040;15.294;2023-03-01T09:23:35;3.83;;;2.58;;
65037;SDS011;51605;47.040;15.294;2023-03-01T09:26:03;3.30;;;2.35;;
65037;SDS011;51605;47.040;15.294;2023-03-01T09:28:30;2.67;;;2.10;;
65037;SDS011;51605;47.040;15.294;2023-03-01T09:31:00;3.60;;;2.45;;
65037;SDS011;51605;47.040;15.294;2023-03-01T09:33:27;3.28;;;2.25;;
65037;SDS011;51605;47.040;15.294;2023-03-01T09:36:12;3.67;;;2.28;;
65037;SDS011;51605;47.040;15.294;2023-03-01T09:38:43;3.65;;;2.55;;
65037;SDS011;51605;47.040;15.294;2023-03-01T09:41:09;4.57;;;2.30;;
65037;SDS011;51605;47.040;15.294;2023-03-01T09:43:49;3.95;;;2.20;;
65037;SDS011;51605;47.040;15.294;2023-03-01T09:46:22;3.85;;;2.50;;
65037;SDS011;51605;47.040;15.294;2023-03-01T09:48:50;3.33;;;2.33;;
65037;SDS011;51605;47.040;15.294;2023-03-01T09:51:23;4.35;;;2.97;;
65037;SDS011;51605;47.040;15.294;2023-03-01T09:53:58;6.45;;;3.80;;
65037;SDS011;51605;47.040;15.294;2023-03-01T10:09:30;3.90;;;2.75;;
65037;SDS011;51605;47.040;15.294;2023-03-01T10:11:59;4.10;;;2.60;;
65037;SDS011;51605;47.040;15.294;2023-03-01T10:14:30;5.47;;;2.70;;
65037;SDS011;51605;47.040;15.294;2023-03-01T10:20:21;3.80;;;2.72;;
65037;SDS011;51605;47.040;15.294;2023-03-01T10:22:54;4.55;;;2.95;;
65037;SDS011;51605;47.040;15.294;2023-03-01T10:30:44;4.20;;;2.70;;
65037;SDS011;51605;47.040;15.294;2023-03-01T10:33:32;3.95;;;2.80;;
65037;SDS011;51605;47.040;15.294;2023-03-01T10:35:59;4.43;;;2.72;;
65037;SDS011;51605;47.040;15.294;2023-03-01T10:38:24;4.63;;;2.80;;
65037;SDS011;51605;47.040;15.294;2023-03-01T10:40:54;4.03;;;2.97;;
65037;SDS011;51605;47.040;15.294;2023-03-01T10:43:24;3.47;;;2.55;;
65037;SDS011;51605;47.040;15.294;2023-03-01T10:45:52;3.90;;;2.63;;
65037;SDS011;51605;47.040;15.294;2023-03-01T10:50:49;5.00;;;3.13;;
65037;SDS011;51605;47.040;15.294;2023-03-01T10:53:26;5.10;;;3.58;;
65037;SDS011;51605;47.040;15.294;2023-03-01T10:56:10;5.45;;;3.30;;
65037;SDS011;51605;47.040;15.294;2023-03-01T10:59:02;5.88;;;3.22;;
65037;SDS011;51605;47.040;15.294;2023-03-01T11:01:29;5.18;;;3.03;;
65037;SDS011;51605;47.040;15.294;2023-03-01T11:04:08;4.22;;;2.80;;
65037;SDS011;51605;47.040;15.294;2023-03-01T11:06:37;3.95;;;3.00;;
65037;SDS011;51605;47.040;15.294;2023-03-01T11:09:20;4.70;;;2.95;;
65037;SDS011;51605;47.040;15.294;2023-03-01T11:11:54;6.95;;;3.95;;
65037;SDS011;51605;47.040;15.294;2023-03-01T11:14:21;9.13;;;5.32;;
65037;SDS011;51605;47.040;15.294;2023-03-01T11:16:57;8.40;;;4.07;;
65037;SDS011;51605;47.040;15.294;2023-03-01T11:19:28;5.68;;;3.70;;
65037;SDS011;51605;47.040;15.294;2023-03-01T11:24:42;5.13;;;3.35;;
65037;SDS011;51605;47.040;15.294;2023-03-01T11:27:19;5.22;;;3.65;;
65037;SDS011;51605;47.040;15.294;2023-03-01T11:30:01;6.53;;;3.60;;
65037;SDS011;51605;47.040;15.294;2023-03-01T11:32:40;5.18;;;3.33;;
65037;SDS011;51605;47.040;15.294;2023-03-01T11:35:13;5.43;;;3.28;;
65037;SDS011;51605;47.040;15.294;2023-03-01T11:42:59;5.55;;;3.42;;
65037;SDS011;51605;47.040;15.294;2023-03-01T11:45:27;5.45;;;3.63;;
65037;SDS011;51605;47.040;15.294;2023-03-01T11:51:13;5.82;;;3.40;;
65037;SDS011;51605;47.040;15.294;2023-03-01T12:10:52;4.63;;;3.38;;
65037;SDS011;51605;47.040;15.294;2023-03-01T12:13:40;4.72;;;3.35;;
65037;SDS011;51605;47.040;15.294;2023-03-01T12:24:08;5.03;;;3.28;;
65037;SDS011;51605;47.040;15.294;2023-03-01T12:32:09;5.28;;;3.40;;
65037;SDS011;51605;47.040;15.294;2023-03-01T12:51:26;4.47;;;3.13;;
65037;SDS011;51605;47.040;15.294;2023-03-01T12:53:56;4.70;;;3.03;;
65037;SDS011;51605;47.040;15.294;2023-03-01T12:56:28;4.47;;;2.97;;
65037;SDS011;51605;47.040;15.294;2023-03-01T12:59:05;4.03;;;3.03;;
65037;SDS011;51605;47.040;15.294;2023-03-01T13:04:33;3.50;;;2.72;;
65037;SDS011;51605;47.040;15.294;2023-03-01T13:09:43;4.15;;;3.17;;
65037;SDS011;51605;47.040;15.294;2023-03-01T13:20:16;4.30;;;3.10;;
65037;SDS011;51605;47.040;15.294;2023-03-01T13:22:45;4.75;;;3.17;;
65037;SDS011;51605;47.040;15.294;2023-03-01T13:25:14;7.28;;;3.22;;
65037;SDS011;51605;47.040;15.294;2023-03-01T13:27:45;3.92;;;2.90;;
65037;SDS011;51605;47.040;15.294;2023-03-01T13:30:37;4.90;;;3.20;;
65037;SDS011;51605;47.040;15.294;2023-03-01T13:35:48;4.60;;;2.95;;
65037;SDS011;51605;47.040;15.294;2023-03-01T13:46:49;4.00;;;2.60;;
65037;SDS011;51605;47.040;15.294;2023-03-01T13:49:21;4.35;;;3.10;;
65037;SDS011;51605;47.040;15.294;2023-03-01T13:51:50;5.72;;;3.08;;
65037;SDS011;51605;47.040;15.294;2023-03-01T13:54:29;4.70;;;2.85;;
65037;SDS011;51605;47.040;15.294;2023-03-01T13:57:00;4.15;;;2.90;;
65037;SDS011;51605;47.040;15.294;2023-03-01T13:59:26;3.70;;;2.80;;
65037;SDS011;51605;47.040;15.294;2023-03-01T14:01:58;5.65;;;2.95;;
65037;SDS011;51605;47.040;15.294;2023-03-01T14:07:16;4.22;;;2.80;;
65037;SDS011;51605;47.040;15.294;2023-03-01T14:09:45;4.13;;;2.78;;
65037;SDS011;51605;47.040;15.294;2023-03-01T14:15:27;4.45;;;3.10;;
65037;SDS011;51605;47.040;15.294;2023-03-01T14:18:14;4.28;;;2.80;;
65037;SDS011;51605;47.040;15.294;2023-03-01T14:20:46;4.30;;;2.90;;
65037;SDS011;51605;47.040;15.294;2023-03-01T14:23:17;4.20;;;2.80;;
65037;SDS011;51605;47.040;15.294;2023-03-01T14:28:23;3.75;;;2.75;;
65037;SDS011;51605;47.040;15.294;2023-03-01T14:30:55;4.78;;;2.60;;
65037;SDS011;51605;47.040;15.294;2023-03-01T14:33:30;5.60;;;2.83;;
65037;SDS011;51605;47.040;15.294;2023-03-01T14:35:59;9.05;;;6.43;;
65037;SDS011;51605;47.040;15.294;2023-03-01T14:41:08;8.40;;;5.97;;
65037;SDS011;51605;47.040;15.294;2023-03-01T14:43:38;8.88;;;5.50;;
65037;SDS011;51605;47.040;15.294;2023-03-01T14:46:06;8.45;;;5.25;;
65037;SDS011;51605;47.040;15.294;2023-03-01T14:48:54;6.45;;;4.43;;
65037;SDS011;51605;47.040;15.294;2023-03-01T14:51:26;12.55;;;5.57;;
65037;SDS011;51605;47.040;15.294;2023-03-01T14:53:52;8.25;;;5.90;;
65037;SDS011;51605;47.040;15.294;2023-03-01T14:56:18;9.52;;;4.97;;
65037;SDS011;51605;47.040;15.294;2023-03-01T14:58:44;7.82;;;4.88;;
65037;SDS011;51605;47.040;15.294;2023-03-01T15:01:13;9.52;;;4.70;;
65037;SDS011;51605;47.040;15.294;2023-03-01T15:03:48;9.70;;;5.13;;
65037;SDS011;51605;47.040;15.294;2023-03-01T15:06:16;7.80;;;4.97;;
65037;SDS011;51605;47.040;15.294;2023-03-01T15:08:45;7.43;;;4.75;;
65037;SDS011;51605;47.040;15.294;2023-03-01T15:13:38;9.55;;;4.50;;
65037;SDS011;51605;47.040;15.294;2023-03-01T15:16:13;9.07;;;4.93;;
65037;SDS011;51605;47.040;15.294;2023-03-01T15:18:45;7.32;;;4.53;;
65037;SDS011;51605;47.040;15.294;2023-03-01T15:21:23;7.32;;;4.72;;
65037;SDS011;51605;47.040;15.294;2023-03-01T15:23:53;8.02;;;4.50;;
65037;SDS011;51605;47.040;15.294;2023-03-01T15:29:23;7.22;;;4.40;;
65037;SDS011;51605;47.040;15.294;2023-03-01T15:31:56;5.53;;;4.25;;
65037;SDS011;51605;47.040;15.294;2023-03-01T15:34:32;6.38;;;4.47;;
65037;SDS011;51605;47.040;15.294;2023-03-01T15:37:03;7.75;;;4.70;;
65037;SDS011;51605;47.040;15.294;2023-03-01T15:42:03;6.80;;;4.50;;
65037;SDS011;51605;47.040;15.294;2023-03-01T15:48:04;6.88;;;4.50;;
65037;SDS011;51605;47.040;15.294;2023-03-01T15:50:40;7.10;;;4.30;;
65037;SDS011;51605;47.040;15.294;2023-03-01T15:53:11;6.55;;;4.10;;
65037;SDS011;51605;47.040;15.294;2023-03-01T15:55:39;7.72;;;4.20;;
65037;SDS011;51605;47.040;15.294;2023-03-01T15:58:21;6.57;;;4.30;;
65037;SDS011;51605;47.040;15.294;2023-03-01T16:00:49;6.20;;;4.15;;
65037;SDS011;51605;47.040;15.294;2023-03-01T16:03:21;6.75;;;4.20;;
65037;SDS011;51605;47.040;15.294;2023-03-01T16:05:50;6.93;;;4.07;;
65037;SDS011;51605;47.040;15.294;2023-03-01T16:08:16;9.13;;;4.15;;
65037;SDS011;51605;47.040;15.294;2023-03-01T16:10:43;7.85;;;4.38;;
65037;SDS011;51605;47.040;15.294;2023-03-01T16:13:09;8.93;;;4.10;;
65037;SDS011;51605;47.040;15.294;2023-03-01T16:15:36;7.32;;;4.22;;
65037;SDS011;51605;47.040;15.294;2023-03-01T16:18:03;7.57;;;4.00;;
65037;SDS011;51605;47.040;15.294;2023-03-01T16:20:30;8.82;;;4.10;;
65037;SDS011;51605;47.040;15.294;2023-03-01T16:23:00;5.93;;;3.90;;
65037;SDS011;51605;47.040;15.294;2023-03-01T16:25:27;7.40;;;4.00;;
65037;SDS011;51605;47.040;15.294;2023-03-01T16:27:54;5.60;;;3.70;;
65037;SDS011;51605;47.040;15.294;2023-03-01T16:30:23;5.13;;;3.80;;
65037;SDS011;51605;47.040;15.294;2023-03-01T16:32:49;6.13;;;3.78;;
65037;SDS011;51605;47.040;15.294;2023-03-01T16:35:16;5.95;;;3.88;;
65037;SDS011;51605;47.040;15.294;2023-03-01T16:37:45;7.03;;;3.80;;
65037;SDS011;51605;47.040;15.294;2023-03-01T16:40:21;6.97;;;4.00;;
65037;SDS011;51605;47.040;15.294;2023-03-01T16:42:50;5.55;;;4.00;;
65037;SDS011;51605;47.040;15.294;2023-03-01T16:45:16;6.40;;;3.53;;
65037;SDS011;51605;47.040;15.294;2023-03-01T16:47:43;7.32;;;4.20;;
65037;SDS011;51605;47.040;15.294;2023-03-01T16:50:10;5.63;;;3.63;;
65037;SDS011;51605;47.040;15.294;2023-03-01T16:52:36;5.63;;;3.67;;
65037;SDS011;51605;47.040;15.294;2023-03-01T16:55:02;6.00;;;3.60;;
65037;SDS011;51605;47.040;15.294;2023-03-01T16:57:29;6.55;;;3.20;;
65037;SDS011;51605;47.040;15.294;2023-03-01T16:59:55;5.45;;;3.30;;
65037;SDS011;51605;47.040;15.294;2023-03-01T17:02:21;6.35;;;3.03;;
65037;SDS011;51605;47.040;15.294;2023-03-01T17:04:54;4.60;;;3.10;;
65037;SDS011;51605;47.040;15.294;2023-03-01T17:07:20;6.45;;;3.30;;
65037;SDS011;51605;47.040;15.294;2023-03-01T17:09:47;12.80;;;3.20;;
65037;SDS011;51605;47.040;15.294;2023-03-01T17:12:13;15.37;;;3.80;;
65037;SDS011;51605;47.040;15.294;2023-03-01T17:14:40;6.57;;;3.47;;
65037;SDS011;51605;47.040;15.294;2023-03-01T17:17:09;7.65;;;3.38;;
65037;SDS011;51605;47.040;15.294;2023-03-01T17:19:35;6.30;;;3.35;;
65037;SDS011;51605;47.040;15.294;2023-03-01T17:22:05;8.65;;;3.50;;
65037;SDS011;51605;47.040;15.294;2023-03-01T17:24:35;8.00;;;3.43;;